createdAt,value
2022-10-23T00:01:27.439Z,20.88
2022-10-23T00:03:57.110Z,19.92
2022-10-23T00:06:25.342Z,30.17
2022-10-23T00:08:52.405Z,25.55
2022-10-23T00:11:28.157Z,20.33
2022-10-23T00:13:57.656Z,21.75
2022-10-23T00:16:24.509Z,20.63
2022-10-23T00:18:51.376Z,21.88
2022-10-23T00:21:18.812Z,29.08
2022-10-23T00:23:46.741Z,19.48
2022-10-23T00:26:17.368Z,24.65
2022-10-23T00:28:45.752Z,17.73
2022-10-23T00:31:13.349Z,22.75
2022-10-23T00:33:41.212Z,15.00
2022-10-23T00:36:10.161Z,15.02
2022-10-23T00:38:37.660Z,21.60
2022-10-23T00:41:06.398Z,24.00
2022-10-23T00:43:34.257Z,16.85
2022-10-23T00:46:02.118Z,23.50
2022-10-23T00:48:29.639Z,19.38
2022-10-23T00:50:58.030Z,16.75
2022-10-23T00:53:25.372Z,15.40
2022-10-23T00:55:54.957Z,14.30
2022-10-23T00:58:22.378Z,20.90
2022-10-23T01:00:54.632Z,18.38
2022-10-23T01:03:26.237Z,15.25
2022-10-23T01:05:56.257Z,15.98
2022-10-23T01:08:35.216Z,17.05
2022-10-23T01:11:08.881Z,16.35
2022-10-23T01:13:39.761Z,17.10
2022-10-23T01:16:20.537Z,15.02
2022-10-23T01:19:16.731Z,11.43
2022-10-23T01:21:55.420Z,18.33
2022-10-23T01:24:41.185Z,14.13
2022-10-23T01:27:18.431Z,17.17
2022-10-23T01:29:59.209Z,11.48
2022-10-23T01:32:48.754Z,16.73
2022-10-23T01:35:29.255Z,16.55
2022-10-23T01:38:29.105Z,13.85
2022-10-23T01:41:10.081Z,12.30
2022-10-23T01:43:49.872Z,16.45
2022-10-23T01:46:18.359Z,12.57
2022-10-23T01:48:52.775Z,15.57
2022-10-23T01:51:22.187Z,14.70
2022-10-23T01:53:55.005Z,23.02
2022-10-23T01:56:33.267Z,13.35
2022-10-23T01:59:04.970Z,18.70
2022-10-23T02:01:41.906Z,14.35
2022-10-23T02:04:12.327Z,16.88
2022-10-23T02:06:39.489Z,12.20
2022-10-23T02:09:07.288Z,12.85
2022-10-23T02:11:42.739Z,13.02
2022-10-23T02:14:09.538Z,14.85
2022-10-23T02:16:47.273Z,16.08
2022-10-23T02:19:35.882Z,17.33
2022-10-23T02:22:16.723Z,16.88
2022-10-23T02:24:46.887Z,32.15
2022-10-23T02:27:17.675Z,25.65
2022-10-23T02:29:51.847Z,39.97
2022-10-23T02:32:24.555Z,31.50
2022-10-23T02:34:51.582Z,39.20
2022-10-23T02:37:18.749Z,41.42
2022-10-23T02:39:45.926Z,37.00
2022-10-23T02:42:26.020Z,41.30
2022-10-23T02:45:21.995Z,45.25
2022-10-23T02:48:01.933Z,40.33
2022-10-23T02:50:50.113Z,34.33
2022-10-23T02:53:22.804Z,31.42
2022-10-23T02:56:15.327Z,31.98
2022-10-23T02:59:10.026Z,40.58
2022-10-23T03:02:03.124Z,38.58
2022-10-23T03:04:33.015Z,42.28
2022-10-23T03:07:00.395Z,41.28
2022-10-23T03:09:28.383Z,25.25
2022-10-23T03:11:56.330Z,29.33
2022-10-23T03:14:23.837Z,25.27
2022-10-23T03:16:50.861Z,14.77
2022-10-23T03:19:17.784Z,25.17
2022-10-23T03:21:44.691Z,20.10
2022-10-23T03:24:11.693Z,11.93
2022-10-23T03:26:42.474Z,18.55
2022-10-23T03:29:10.151Z,15.52
2022-10-23T03:31:42.743Z,16.63
2022-10-23T03:34:11.482Z,15.75
2022-10-23T03:36:40.827Z,21.95
2022-10-23T03:39:09.151Z,35.83
2022-10-23T03:41:36.009Z,32.90
2022-10-23T03:46:34.850Z,22.13
2022-10-23T03:49:01.771Z,17.42
2022-10-23T03:51:28.756Z,22.52
2022-10-23T03:53:57.745Z,15.30
2022-10-23T03:56:24.639Z,43.28
2022-10-23T03:58:51.577Z,18.13
2022-10-23T04:01:18.705Z,18.92
2022-10-23T04:03:46.386Z,16.33
2022-10-23T04:06:15.807Z,15.65
2022-10-23T04:08:44.192Z,14.02
2022-10-23T04:11:16.055Z,30.20
2022-10-23T04:13:45.808Z,19.38
2022-10-23T04:16:12.938Z,24.25
2022-10-23T04:18:43.013Z,28.08
2022-10-23T04:21:11.295Z,28.08
2022-10-23T04:23:39.080Z,25.88
2022-10-23T04:26:11.715Z,22.13
2022-10-23T04:28:38.787Z,26.60
2022-10-23T04:31:05.901Z,35.55
2022-10-23T04:33:33.650Z,29.08
2022-10-23T04:36:00.604Z,22.15
2022-10-23T04:38:27.432Z,24.60
2022-10-23T04:40:54.400Z,27.73
2022-10-23T04:43:22.557Z,25.98
2022-10-23T04:45:50.286Z,30.00
2022-10-23T04:48:18.104Z,32.63
2022-10-23T04:51:06.539Z,33.20
2022-10-23T04:53:51.865Z,36.40
2022-10-23T04:56:41.813Z,28.30
2022-10-23T04:59:14.343Z,30.23
2022-10-23T05:01:42.299Z,44.30
2022-10-23T05:04:09.866Z,26.17
2022-10-23T05:06:59.325Z,32.17
2022-10-23T05:09:42.882Z,24.40
2022-10-23T05:12:37.153Z,25.50
2022-10-23T05:15:04.531Z,20.83
2022-10-23T05:17:44.093Z,24.88
2022-10-23T05:20:18.434Z,21.58
2022-10-23T05:22:49.113Z,21.30
2022-10-23T05:25:18.227Z,20.52
2022-10-23T05:27:52.614Z,19.53
2022-10-23T05:30:19.548Z,15.88
2022-10-23T05:32:46.772Z,20.02
2022-10-23T05:35:22.164Z,16.00
2022-10-23T05:37:53.628Z,16.75
2022-10-23T05:40:24.011Z,15.73
2022-10-23T05:42:56.743Z,13.68
2022-10-23T05:45:35.418Z,15.05
2022-10-23T05:48:34.376Z,9.07
2022-10-23T05:51:20.265Z,14.75
2022-10-23T05:53:54.829Z,15.07
2022-10-23T05:56:47.807Z,10.30
2022-10-23T05:59:23.498Z,15.25
2022-10-23T06:02:11.199Z,15.98
2022-10-23T06:04:53.203Z,11.07
2022-10-23T06:07:25.214Z,11.73
2022-10-23T06:09:54.447Z,11.05
2022-10-23T06:12:22.470Z,11.05
2022-10-23T06:14:51.953Z,13.50
2022-10-23T06:17:21.230Z,10.50
2022-10-23T06:19:48.526Z,17.85
2022-10-23T06:24:55.758Z,18.20
2022-10-23T06:27:26.565Z,11.95
2022-10-23T06:29:55.063Z,15.70
2022-10-23T06:32:22.539Z,18.35
2022-10-23T06:35:04.711Z,9.93
2022-10-23T06:37:34.380Z,13.60
2022-10-23T06:40:09.183Z,18.60
2022-10-23T06:42:56.233Z,19.92
2022-10-23T06:45:49.668Z,14.50
2022-10-23T06:48:36.776Z,22.17
2022-10-23T06:51:11.478Z,21.02
2022-10-23T06:53:43.702Z,15.55
2022-10-23T06:56:35.254Z,18.50
2022-10-23T06:59:07.776Z,14.50
2022-10-23T07:01:36.111Z,22.88
2022-10-23T07:04:03.142Z,12.95
2022-10-23T07:06:30.623Z,20.65
2022-10-23T07:08:59.606Z,29.25
2022-10-23T07:11:55.570Z,43.17
2022-10-23T07:14:32.337Z,18.17
2022-10-23T07:17:01.690Z,21.98
2022-10-23T07:19:29.335Z,20.80
2022-10-23T07:21:57.986Z,15.48
2022-10-23T07:24:44.547Z,21.90
2022-10-23T07:27:38.576Z,7.28
2022-10-23T07:30:08.510Z,21.77
2022-10-23T07:32:44.460Z,13.48
2022-10-23T07:35:39.819Z,13.93
2022-10-23T07:38:13.869Z,7.78
2022-10-23T07:40:47.275Z,13.20
2022-10-23T07:43:18.610Z,24.80
2022-10-23T07:45:50.038Z,10.45
2022-10-23T07:48:32.462Z,12.13
2022-10-23T07:51:08.462Z,17.38
2022-10-23T07:53:40.242Z,21.27
2022-10-23T07:56:30.125Z,6.93
2022-10-23T07:59:15.035Z,5.35
2022-10-23T08:01:50.563Z,14.98
2022-10-23T08:04:21.103Z,12.07
2022-10-23T08:06:56.692Z,13.25
2022-10-23T08:09:25.428Z,20.02
2022-10-23T08:11:52.417Z,13.00
2022-10-23T08:14:21.243Z,16.95
2022-10-23T08:16:49.007Z,6.50
2022-10-23T08:19:18.742Z,4.20
2022-10-23T08:21:47.417Z,8.63
2022-10-23T08:24:14.831Z,9.40
2022-10-23T08:26:44.698Z,9.98
2022-10-23T08:29:13.161Z,7.97
2022-10-23T08:31:40.995Z,13.60
2022-10-23T08:34:15.706Z,8.70
2022-10-23T08:36:45.180Z,10.10
2022-10-23T08:39:12.681Z,10.10
2022-10-23T08:41:51.711Z,5.38
2022-10-23T08:44:36.739Z,6.13
2022-10-23T08:50:26.010Z,6.18
2022-10-23T08:53:10.210Z,6.25
2022-10-23T08:55:42.842Z,11.68
2022-10-23T08:58:24.581Z,6.13
2022-10-23T09:00:51.832Z,3.55
2022-10-23T09:03:18.903Z,8.38
2022-10-23T09:06:32.097Z,6.55
2022-10-23T09:09:27.220Z,7.07
2022-10-23T09:12:20.446Z,9.73
2022-10-23T09:15:08.375Z,9.65
2022-10-23T09:17:39.224Z,8.45
2022-10-23T09:20:23.185Z,6.90
2022-10-23T09:23:23.322Z,9.52
2022-10-23T09:25:57.117Z,13.55
2022-10-23T09:28:32.533Z,10.30
2022-10-23T09:31:10.843Z,11.32
2022-10-23T09:33:38.181Z,9.18
2022-10-23T09:36:19.969Z,6.78
2022-10-23T09:38:47.202Z,9.40
2022-10-23T09:41:23.739Z,5.15
2022-10-23T09:44:08.872Z,6.85
2022-10-23T09:46:41.683Z,10.60
2022-10-23T09:49:32.470Z,8.82
2022-10-23T09:52:08.159Z,11.25
2022-10-23T09:54:44.899Z,6.55
2022-10-23T09:57:30.194Z,8.02
2022-10-23T10:00:04.200Z,6.22
2022-10-23T10:02:38.819Z,6.03
2022-10-23T10:05:36.340Z,3.38
2022-10-23T10:08:21.247Z,11.85
2022-10-23T10:10:52.389Z,7.32
2022-10-23T10:13:52.289Z,4.32
2022-10-23T10:16:43.043Z,4.93
2022-10-23T10:19:48.741Z,14.50
2022-10-23T10:22:44.852Z,3.08
2022-10-23T10:25:27.425Z,4.45
2022-10-23T10:28:33.263Z,8.10
2022-10-23T10:31:53.031Z,9.75
2022-10-23T10:34:39.782Z,3.45
2022-10-23T10:37:13.931Z,7.10
2022-10-23T10:39:49.504Z,6.13
2022-10-23T10:43:04.652Z,4.53
2022-10-23T10:45:37.739Z,8.43
2022-10-23T10:48:35.129Z,4.72
2022-10-23T10:51:39.654Z,8.65
2022-10-23T10:54:48.288Z,5.68
2022-10-23T10:57:40.483Z,3.30
2022-10-23T11:00:26.287Z,4.80
2022-10-23T11:03:01.105Z,10.10
2022-10-23T11:05:44.976Z,5.10
2022-10-23T11:08:40.223Z,5.13
2022-10-23T11:11:22.969Z,6.50
2022-10-23T11:13:51.635Z,6.18
2022-10-23T11:16:33.087Z,2.47
2022-10-23T11:19:40.982Z,4.80
2022-10-23T11:22:40.542Z,5.03
2022-10-23T11:25:28.737Z,3.13
2022-10-23T11:28:19.536Z,3.38
2022-10-23T11:31:13.357Z,5.15
2022-10-23T11:34:17.109Z,2.03
2022-10-23T11:36:58.636Z,7.95
2022-10-23T11:39:30.901Z,4.03
2022-10-23T11:42:05.134Z,3.35
2022-10-23T11:44:35.038Z,2.80
2022-10-23T11:47:25.247Z,5.72
2022-10-23T11:50:05.295Z,1.85
2022-10-23T11:52:32.550Z,5.50
2022-10-23T11:55:04.176Z,3.92
2022-10-23T12:00:03.858Z,4.57
2022-10-23T12:02:43.451Z,3.15
2022-10-23T12:05:33.405Z,3.13
2022-10-23T12:08:02.658Z,5.40
2022-10-23T12:10:43.867Z,6.15
2022-10-23T12:13:32.514Z,3.40
2022-10-23T12:16:00.980Z,2.20
2022-10-23T12:18:28.365Z,4.55
2022-10-23T12:20:59.772Z,5.00
2022-10-23T12:23:34.727Z,2.95
2022-10-23T12:26:13.570Z,6.72
2022-10-23T12:29:01.708Z,2.95
2022-10-23T12:31:55.720Z,4.60
2022-10-23T12:34:56.550Z,4.05
2022-10-23T12:37:51.694Z,2.17
2022-10-23T12:40:18.646Z,1.65
2022-10-23T12:42:54.554Z,4.15
2022-10-23T12:45:37.057Z,4.15
2022-10-23T12:48:04.389Z,7.05
2022-10-23T12:50:33.551Z,8.05
2022-10-23T12:53:07.735Z,6.50
2022-10-23T12:55:50.219Z,4.65
2022-10-23T12:58:21.969Z,3.38
2022-10-23T13:00:52.563Z,7.32
2022-10-23T13:03:22.467Z,4.13
2022-10-23T13:05:55.489Z,2.47
2022-10-23T13:08:33.621Z,5.60
2022-10-23T13:11:22.515Z,1.52
2022-10-23T13:13:51.078Z,3.25
2022-10-23T13:16:21.013Z,1.40
2022-10-23T13:18:48.208Z,3.65
2022-10-23T13:21:24.163Z,4.10
2022-10-23T13:23:52.855Z,3.50
2022-10-23T13:26:49.240Z,5.05
2022-10-23T13:29:27.399Z,1.48
2022-10-23T13:31:54.460Z,3.63
2022-10-23T13:34:29.910Z,5.55
2022-10-23T13:37:23.899Z,5.00
2022-10-23T13:40:06.527Z,3.25
2022-10-23T13:42:33.641Z,1.70
2022-10-23T13:45:00.600Z,3.20
2022-10-23T13:47:27.487Z,3.08
2022-10-23T13:49:54.393Z,1.50
2022-10-23T13:52:23.882Z,4.10
2022-10-23T13:54:51.042Z,1.77
2022-10-23T13:57:17.950Z,1.85
2022-10-23T13:59:44.830Z,1.58
2022-10-23T14:02:20.260Z,3.60
2022-10-23T14:04:48.171Z,5.57
2022-10-23T14:07:15.114Z,4.13
2022-10-23T14:09:42.103Z,3.20
2022-10-23T14:12:09.063Z,3.58
2022-10-23T14:14:36.004Z,3.22
2022-10-23T14:17:02.917Z,2.00
2022-10-23T14:19:29.808Z,3.35
2022-10-23T14:21:56.679Z,1.08
2022-10-23T14:24:23.634Z,2.47
2022-10-23T14:26:50.470Z,4.93
2022-10-23T14:29:22.983Z,2.13
2022-10-23T14:31:50.085Z,5.07
2022-10-23T14:34:17.179Z,4.70
2022-10-23T14:36:50.408Z,1.10
2022-10-23T14:39:18.295Z,1.60
2022-10-23T14:41:45.201Z,8.27
2022-10-23T14:44:12.179Z,1.38
2022-10-23T14:46:39.078Z,4.05
2022-10-23T14:49:06.368Z,2.92
2022-10-23T14:51:33.609Z,5.40
2022-10-23T14:54:03.037Z,3.42
2022-10-23T14:56:31.830Z,1.23
2022-10-23T14:59:02.964Z,2.38
2022-10-23T15:01:34.546Z,2.53
2022-10-23T15:04:01.825Z,5.18
2022-10-23T15:06:28.960Z,5.85
2022-10-23T15:08:56.040Z,7.82
2022-10-23T15:11:24.369Z,3.00
2022-10-23T15:13:51.599Z,5.50
2022-10-23T15:16:18.701Z,4.25
2022-10-23T15:18:45.539Z,3.63
2022-10-23T15:21:14.780Z,1.65
2022-10-23T15:23:46.046Z,4.32
2022-10-23T15:26:20.283Z,3.08
2022-10-23T15:28:48.339Z,4.45
2022-10-23T15:31:44.246Z,6.95
2022-10-23T15:34:17.996Z,7.05
2022-10-23T15:36:47.063Z,9.50
2022-10-23T15:39:17.049Z,9.20
2022-10-23T15:41:44.518Z,9.43
2022-10-23T15:44:17.099Z,5.18
2022-10-23T15:46:44.273Z,12.13
2022-10-23T15:49:11.464Z,8.02
2022-10-23T15:51:39.092Z,7.78
2022-10-23T15:54:07.852Z,8.93
2022-10-23T15:56:35.697Z,17.55
2022-10-23T15:59:03.242Z,9.90
2022-10-23T16:01:30.394Z,8.27
2022-10-23T16:03:57.416Z,9.50
2022-10-23T16:06:24.703Z,8.05
2022-10-23T16:11:24.081Z,3.40
2022-10-23T16:13:51.568Z,5.43
2022-10-23T16:16:18.627Z,2.20
2022-10-23T16:18:46.536Z,6.78
2022-10-23T16:21:24.892Z,16.38
2022-10-23T16:23:53.412Z,13.52
2022-10-23T16:26:21.126Z,10.95
2022-10-23T16:28:52.552Z,16.90
2022-10-23T16:31:21.289Z,8.55
2022-10-23T16:33:48.899Z,10.00
2022-10-23T16:36:16.583Z,11.13
2022-10-23T16:39:04.023Z,14.15
2022-10-23T16:41:49.574Z,10.80
2022-10-23T16:44:19.425Z,14.30
2022-10-23T16:47:06.218Z,12.63
2022-10-23T16:49:33.425Z,13.43
2022-10-23T16:52:00.323Z,16.77
2022-10-23T16:54:27.615Z,13.25
2022-10-23T16:56:54.581Z,14.60
2022-10-23T16:59:21.494Z,8.35
2022-10-23T17:01:48.644Z,12.77
2022-10-23T17:04:15.628Z,12.43
2022-10-23T17:06:42.700Z,13.73
2022-10-23T17:09:09.597Z,12.57
2022-10-23T17:11:38.667Z,13.52
2022-10-23T17:14:09.014Z,12.27
2022-10-23T17:16:40.300Z,15.13
2022-10-23T17:19:15.793Z,12.27
2022-10-23T17:21:48.238Z,14.35
2022-10-23T17:24:15.355Z,14.88
2022-10-23T17:26:42.774Z,12.80
2022-10-23T17:29:11.366Z,15.35
2022-10-23T17:31:40.692Z,11.75
2022-10-23T17:34:11.754Z,8.38
2022-10-23T17:36:43.386Z,10.70
2022-10-23T17:39:13.172Z,13.05
2022-10-23T17:41:41.018Z,17.13
2022-10-23T17:44:08.228Z,11.18
2022-10-23T17:46:35.276Z,8.60
2022-10-23T17:49:03.383Z,16.35
2022-10-23T17:51:33.597Z,11.20
2022-10-23T17:54:06.295Z,14.45
2022-10-23T17:56:35.053Z,18.42
2022-10-23T17:59:05.565Z,14.00
2022-10-23T18:01:32.859Z,14.82
2022-10-23T18:04:02.344Z,12.30
2022-10-23T18:06:32.398Z,14.73
2022-10-23T18:09:01.154Z,8.63
2022-10-23T18:11:34.093Z,9.85
2022-10-23T18:14:01.915Z,9.52
2022-10-23T18:16:29.084Z,10.80
2022-10-23T18:18:56.562Z,18.38
2022-10-23T18:21:24.347Z,8.95
2022-10-23T18:23:51.820Z,12.50
2022-10-23T18:26:21.844Z,20.50
2022-10-23T18:28:50.553Z,20.65
2022-10-23T18:31:18.991Z,10.55
2022-10-23T18:33:46.312Z,19.45
2022-10-23T18:36:16.308Z,15.32
2022-10-23T18:38:43.421Z,12.35
2022-10-23T18:41:10.761Z,14.20
2022-10-23T18:43:43.776Z,13.80
2022-10-23T18:46:15.433Z,16.83
2022-10-23T18:48:43.688Z,14.13
2022-10-23T18:51:16.110Z,16.98
2022-10-23T18:53:46.860Z,17.15
2022-10-23T18:56:15.110Z,18.95
2022-10-23T18:58:42.332Z,17.13
2022-10-23T19:01:09.342Z,19.60
2022-10-23T19:03:36.432Z,20.00
2022-10-23T19:06:06.896Z,23.80
2022-10-23T19:08:37.977Z,16.48
2022-10-23T19:11:06.578Z,20.15
2022-10-23T19:13:39.067Z,22.65
2022-10-23T19:16:21.601Z,15.98
2022-10-23T19:18:53.636Z,22.35
2022-10-23T19:21:24.455Z,17.83
2022-10-23T19:23:52.478Z,20.58
2022-10-23T19:26:19.505Z,18.70
2022-10-23T19:28:48.982Z,12.82
2022-10-23T19:31:16.129Z,15.77
2022-10-23T19:33:43.035Z,11.43
2022-10-23T19:36:14.072Z,11.75
2022-10-23T19:38:42.390Z,14.23
2022-10-23T19:41:10.055Z,11.82
2022-10-23T19:43:37.954Z,14.52
2022-10-23T19:46:09.318Z,9.43
2022-10-23T19:48:42.602Z,9.43
2022-10-23T19:51:09.732Z,13.35
2022-10-23T19:53:36.818Z,22.00
2022-10-23T19:56:06.275Z,11.95
2022-10-23T19:58:33.231Z,12.93
2022-10-23T20:01:10.766Z,9.90
2022-10-23T20:03:39.429Z,13.77
2022-10-23T20:06:09.579Z,10.55
2022-10-23T20:08:36.516Z,17.80
2022-10-23T20:11:03.784Z,9.48
2022-10-23T20:13:30.722Z,13.55
2022-10-23T20:15:57.612Z,13.63
2022-10-23T20:18:26.011Z,13.52
2022-10-23T20:20:54.311Z,18.05
2022-10-23T20:23:21.191Z,18.30
2022-10-23T20:25:48.218Z,16.38
2022-10-23T20:28:15.413Z,8.73
2022-10-23T20:30:44.524Z,14.95
2022-10-23T20:33:11.940Z,9.60
2022-10-23T20:35:42.982Z,13.25
2022-10-23T20:38:10.279Z,8.32
2022-10-23T20:40:37.772Z,8.73
2022-10-23T20:43:04.971Z,15.73
2022-10-23T20:45:31.979Z,9.70
2022-10-23T20:47:58.922Z,10.77
2022-10-23T20:50:26.127Z,15.05
2022-10-23T20:52:53.205Z,11.13
2022-10-23T20:55:20.240Z,17.05
2022-10-23T20:57:47.367Z,9.18
2022-10-23T21:00:15.690Z,8.93
2022-10-23T21:02:45.793Z,11.38
2022-10-23T21:05:14.207Z,10.23
2022-10-23T21:07:41.151Z,12.18
2022-10-23T21:10:08.399Z,10.90
2022-10-23T21:12:35.306Z,18.13
2022-10-23T21:15:02.221Z,7.43
2022-10-23T21:17:35.814Z,16.15
2022-10-23T21:20:03.150Z,9.23
2022-10-23T21:22:30.044Z,10.13
2022-10-23T21:24:58.574Z,7.90
2022-10-23T21:27:25.796Z,3.97
2022-10-23T21:29:52.637Z,7.25
2022-10-23T21:32:20.447Z,14.02
2022-10-23T21:34:47.409Z,8.98
2022-10-23T21:37:14.990Z,11.02
2022-10-23T21:39:43.628Z,6.15
2022-10-23T21:42:12.174Z,8.98
2022-10-23T21:44:39.065Z,5.65
2022-10-23T21:47:05.943Z,4.30
2022-10-23T21:49:32.842Z,13.88
2022-10-23T21:51:59.657Z,5.35
2022-10-23T21:54:26.769Z,7.90
2022-10-23T21:56:53.933Z,17.27
2022-10-23T21:59:24.365Z,7.88
2022-10-23T22:01:52.528Z,4.88
2022-10-23T22:04:20.512Z,5.32
2022-10-23T22:06:48.918Z,6.78
2022-10-23T22:09:19.610Z,3.33
2022-10-23T22:11:49.365Z,5.72
2022-10-23T22:14:16.309Z,6.13
2022-10-23T22:16:43.211Z,10.82
2022-10-23T22:19:15.571Z,8.30
2022-10-23T22:21:43.210Z,10.02
2022-10-23T22:24:10.155Z,5.45
2022-10-23T22:26:40.610Z,4.50
2022-10-23T22:29:15.146Z,7.38
2022-10-23T22:31:45.486Z,7.73
2022-10-23T22:34:28.818Z,16.02
2022-10-23T22:37:07.992Z,6.22
2022-10-23T22:39:35.003Z,9.55
2022-10-23T22:42:01.862Z,8.05
2022-10-23T22:44:28.966Z,9.88
2022-10-23T22:46:55.923Z,14.20
2022-10-23T22:49:22.861Z,11.88
2022-10-23T22:51:49.809Z,3.42
2022-10-23T22:54:16.639Z,5.90
2022-10-23T22:56:43.616Z,9.23
2022-10-23T22:59:10.693Z,7.68
2022-10-23T23:01:43.803Z,4.55
2022-10-23T23:04:37.951Z,5.88
2022-10-23T23:07:06.370Z,9.73
2022-10-23T23:09:36.709Z,7.68
2022-10-23T23:12:04.011Z,10.20
2022-10-23T23:14:30.894Z,5.47
2022-10-23T23:16:57.954Z,11.00
2022-10-23T23:19:26.696Z,16.23
2022-10-23T23:22:00.004Z,7.35
2022-10-23T23:24:27.404Z,4.07
2022-10-23T23:26:54.316Z,7.50
2022-10-23T23:29:21.796Z,7.43
2022-10-23T23:31:48.742Z,5.88
2022-10-23T23:34:15.646Z,14.18
2022-10-23T23:36:42.584Z,6.93
2022-10-23T23:39:10.552Z,6.68
2022-10-23T23:41:37.936Z,7.93
2022-10-23T23:44:04.965Z,4.60
2022-10-23T23:46:31.813Z,4.38
2022-10-23T23:48:58.649Z,7.78
2022-10-23T23:51:26.361Z,6.07
2022-10-23T23:53:53.758Z,8.75
2022-10-23T23:56:21.010Z,8.65
2022-10-23T23:58:47.889Z,21.52
